createdAt,value
2022-08-11T00:02:00.605Z,63.17
2022-08-11T00:04:34.771Z,63.53
2022-08-11T00:07:05.113Z,63.23
2022-08-11T00:09:42.192Z,63.66
2022-08-11T00:12:18.333Z,62.28
2022-08-11T00:14:46.514Z,63.44
2022-08-11T00:17:15.960Z,62.99
2022-08-11T00:20:13.846Z,63.85
2022-08-11T00:22:41.889Z,64.50
2022-08-11T00:25:19.705Z,63.83
2022-08-11T00:27:49.107Z,64.96
2022-08-11T00:30:17.832Z,65.17
2022-08-11T00:32:55.607Z,63.59
2022-08-11T00:35:53.803Z,63.97
2022-08-11T00:38:18.945Z,64.54
2022-08-11T00:41:04.866Z,65.00
2022-08-11T00:44:23.189Z,64.74
2022-08-11T00:47:24.766Z,64.71
2022-08-11T00:50:24.023Z,64.23
2022-08-11T00:52:54.596Z,65.89
2022-08-11T00:56:08.487Z,64.20
2022-08-11T00:59:34.529Z,63.99
2022-08-11T01:02:19.674Z,64.29
2022-08-11T01:05:38.742Z,64.98
2022-08-11T01:08:23.692Z,65.11
2022-08-11T01:11:55.109Z,64.81
2022-08-11T01:14:37.964Z,65.88
2022-08-11T01:17:32.545Z,65.89
2022-08-11T01:20:47.389Z,66.42
2022-08-11T01:23:08.241Z,66.39
2022-08-11T01:25:57.301Z,67.59
2022-08-11T01:28:37.027Z,66.34
2022-08-11T01:31:46.858Z,67.12
2022-08-11T01:34:57.186Z,66.84
2022-08-11T01:37:49.033Z,66.51
2022-08-11T01:41:03.256Z,66.26
2022-08-11T01:44:33.529Z,66.25
2022-08-11T01:47:54.304Z,66.36
2022-08-11T01:50:36.827Z,66.26
2022-08-11T01:53:55.288Z,65.81
2022-08-11T01:56:38.252Z,66.46
2022-08-11T01:59:24.970Z,66.56
2022-08-11T02:02:44.732Z,67.17
2022-08-11T02:05:46.260Z,66.95
2022-08-11T02:08:50.535Z,66.48
2022-08-11T02:11:37.558Z,66.50
2022-08-11T02:14:39.976Z,66.35
2022-08-11T02:18:06.062Z,66.41
2022-08-11T02:21:21.071Z,67.15
2022-08-11T02:24:07.916Z,67.78
2022-08-11T02:26:48.968Z,67.30
2022-08-11T02:29:43.467Z,66.49
2022-08-11T02:32:43.270Z,67.64
2022-08-11T02:36:08.484Z,67.08
2022-08-11T02:38:47.350Z,68.51
2022-08-11T02:42:07.610Z,67.69
2022-08-11T02:45:12.806Z,68.22
2022-08-11T02:48:16.455Z,68.28
2022-08-11T02:51:05.879Z,68.00
2022-08-11T02:54:13.278Z,68.18
2022-08-11T02:57:16.566Z,68.34
2022-08-11T03:00:10.216Z,68.23
2022-08-11T03:02:54.802Z,68.03
2022-08-11T03:05:48.292Z,68.20
2022-08-11T03:09:00.450Z,66.67
2022-08-11T03:12:30.725Z,68.17
2022-08-11T03:15:41.856Z,67.91
2022-08-11T03:18:41.561Z,67.64
2022-08-11T03:22:07.833Z,67.68
2022-08-11T03:25:03.093Z,67.97
2022-08-11T03:28:19.221Z,67.63
2022-08-11T03:31:19.893Z,68.02
2022-08-11T03:34:13.724Z,66.95
2022-08-11T03:37:37.677Z,67.30
2022-08-11T03:42:01.755Z,66.97
2022-08-11T03:44:23.931Z,67.25
2022-08-11T03:47:37.346Z,67.54
2022-08-11T03:50:30.831Z,66.75
2022-08-11T03:53:45.211Z,66.48
2022-08-11T03:56:33.249Z,66.88
2022-08-11T03:59:09.158Z,67.20
2022-08-11T04:01:53.189Z,66.72
2022-08-11T04:05:04.400Z,67.38
2022-08-11T04:07:40.387Z,67.62
2022-08-11T04:11:10.498Z,68.02
2022-08-11T04:14:30.223Z,67.87
2022-08-11T04:17:34.486Z,68.58
2022-08-11T04:20:46.783Z,67.55
2022-08-11T04:24:33.071Z,68.36
2022-08-11T04:27:01.893Z,67.92
2022-08-11T04:30:03.913Z,68.70
2022-08-11T04:33:19.028Z,67.22
2022-08-11T04:36:07.163Z,67.32
2022-08-11T04:39:20.252Z,66.33
2022-08-11T04:42:48.212Z,66.73
2022-08-11T04:45:53.315Z,65.34
2022-08-11T04:48:58.047Z,66.75
2022-08-11T04:52:11.065Z,64.72
2022-08-11T04:56:03.778Z,66.36
2022-08-11T04:59:20.765Z,67.17
2022-08-11T05:02:43.765Z,66.94
2022-08-11T05:05:56.615Z,67.39
2022-08-11T05:08:50.630Z,68.04
2022-08-11T05:11:35.526Z,67.97
2022-08-11T05:14:30.107Z,67.42
2022-08-11T05:17:29.812Z,68.59
2022-08-11T05:20:15.810Z,68.15
2022-08-11T05:23:10.822Z,66.46
2022-08-11T05:26:45.270Z,67.13
2022-08-11T05:29:24.535Z,67.27
2022-08-11T05:32:18.299Z,66.75
2022-08-11T05:34:57.021Z,67.87
2022-08-11T05:37:30.438Z,66.91
2022-08-11T05:40:29.977Z,66.24
2022-08-11T05:43:30.611Z,65.18
2022-08-11T05:46:26.173Z,64.35
2022-08-11T05:49:12.377Z,64.42
2022-08-11T05:52:05.608Z,62.39
2022-08-11T05:55:06.039Z,60.22
2022-08-11T05:57:51.256Z,57.11
2022-08-11T06:00:20.035Z,56.74
2022-08-11T06:03:07.687Z,52.35
2022-08-11T06:05:44.068Z,49.65
2022-08-11T06:08:13.868Z,48.50
2022-08-11T06:10:46.297Z,50.23
2022-08-11T06:13:17.721Z,45.99
2022-08-11T06:15:49.534Z,44.52
2022-08-11T06:18:17.004Z,44.35
2022-08-11T06:20:50.368Z,44.32
2022-08-11T06:23:23.934Z,43.41
2022-08-11T06:25:56.143Z,41.50
2022-08-11T06:28:36.069Z,40.48
2022-08-11T06:31:16.598Z,38.18
2022-08-11T06:34:35.906Z,37.53
2022-08-11T06:37:24.016Z,36.72
2022-08-11T06:40:12.107Z,36.44
2022-08-11T06:43:21.715Z,35.36
2022-08-11T06:45:57.930Z,34.40
2022-08-11T06:48:26.172Z,34.85
2022-08-11T06:51:12.631Z,33.58
2022-08-11T06:54:05.396Z,34.52
2022-08-11T06:57:12.442Z,34.50
2022-08-11T07:00:05.811Z,32.29
2022-08-11T07:03:01.242Z,30.48
2022-08-11T07:05:37.494Z,28.93
2022-08-11T07:09:07.794Z,29.67
2022-08-11T07:12:26.045Z,30.27
2022-08-11T07:15:15.216Z,29.52
2022-08-11T07:18:09.611Z,30.41
2022-08-11T07:21:01.933Z,31.65
2022-08-11T07:23:52.718Z,29.92
2022-08-11T07:26:40.756Z,30.99
2022-08-11T07:29:11.074Z,29.70
2022-08-11T07:31:52.188Z,29.83
2022-08-11T07:34:20.849Z,31.51
2022-08-11T07:37:00.317Z,28.08
2022-08-11T07:39:36.284Z,28.33
2022-08-11T07:42:09.970Z,27.45
2022-08-11T07:45:00.011Z,27.73
2022-08-11T07:47:47.406Z,27.75
2022-08-11T07:50:33.973Z,29.82
2022-08-11T07:53:02.777Z,27.22
2022-08-11T07:55:48.880Z,28.70
2022-08-11T07:58:45.580Z,26.97
2022-08-11T08:01:42.780Z,26.37
2022-08-11T08:04:33.415Z,25.87
2022-08-11T08:07:22.662Z,27.67
2022-08-11T08:10:09.651Z,26.42
2022-08-11T08:13:00.514Z,25.62
2022-08-11T08:15:47.161Z,27.10
2022-08-11T08:18:33.732Z,27.98
2022-08-11T08:21:12.383Z,26.11
2022-08-11T08:23:43.051Z,25.88
2022-08-11T08:26:51.502Z,24.09
2022-08-11T08:29:40.452Z,23.36
2022-08-11T08:32:16.459Z,22.55
2022-08-11T08:34:49.737Z,23.42
2022-08-11T08:37:46.177Z,23.31
2022-08-11T08:40:10.585Z,23.58
2022-08-11T08:42:46.302Z,22.21
2022-08-11T08:45:18.549Z,24.34
2022-08-11T08:48:10.908Z,23.30
2022-08-11T08:51:03.687Z,22.25
2022-08-11T08:53:39.051Z,20.87
2022-08-11T08:56:29.504Z,20.84
2022-08-11T08:59:01.017Z,21.98
2022-08-11T09:01:42.936Z,19.78
2022-08-11T09:04:12.797Z,23.40
2022-08-11T09:06:50.022Z,22.30
2022-08-11T09:09:21.491Z,19.26
2022-08-11T09:11:53.621Z,21.39
2022-08-11T09:14:57.042Z,20.23
2022-08-11T09:17:27.563Z,20.62
2022-08-11T09:20:07.165Z,19.63
2022-08-11T09:23:41.312Z,19.62
2022-08-11T09:26:04.459Z,18.26
2022-08-11T09:28:32.757Z,21.33
2022-08-11T09:31:02.154Z,20.03
2022-08-11T09:33:31.936Z,20.71
2022-08-11T09:36:21.007Z,20.26
2022-08-11T09:39:07.166Z,19.50
2022-08-11T09:42:01.616Z,18.38
2022-08-11T09:44:41.931Z,19.53
2022-08-11T09:47:15.055Z,20.89
2022-08-11T09:49:46.406Z,18.93
2022-08-11T09:52:14.684Z,18.42
2022-08-11T09:54:48.082Z,20.18
2022-08-11T09:57:38.254Z,20.17
2022-08-11T10:00:13.625Z,19.21
2022-08-11T10:02:55.512Z,18.61
2022-08-11T10:05:41.759Z,21.15
2022-08-11T10:08:14.125Z,19.99
2022-08-11T10:10:42.072Z,19.85
2022-08-11T10:14:30.206Z,20.22
2022-08-11T10:16:15.228Z,19.30
2022-08-11T10:18:51.701Z,18.92
2022-08-11T10:21:40.179Z,19.96
2022-08-11T10:24:28.150Z,21.19
2022-08-11T10:27:02.920Z,21.12
2022-08-11T10:29:59.740Z,23.16
2022-08-11T10:32:59.512Z,21.93
2022-08-11T10:35:30.545Z,21.07
2022-08-11T10:38:06.334Z,21.58
2022-08-11T10:40:39.717Z,20.96
2022-08-11T10:44:00.352Z,21.79
2022-08-11T10:46:30.034Z,22.94
2022-08-11T10:48:59.253Z,21.74
2022-08-11T10:51:50.820Z,22.00
2022-08-11T10:54:39.891Z,21.62
2022-08-11T10:57:27.794Z,20.04
2022-08-11T10:59:58.097Z,21.16
2022-08-11T11:02:27.388Z,23.73
2022-08-11T11:05:21.672Z,22.36
2022-08-11T11:08:32.397Z,22.68
2022-08-11T11:11:02.334Z,23.02
2022-08-11T11:13:55.181Z,23.06
2022-08-11T11:16:43.939Z,23.03
2022-08-11T11:19:13.292Z,22.42
2022-08-11T11:21:43.065Z,22.12
2022-08-11T11:24:42.497Z,21.26
2022-08-11T11:27:35.799Z,22.52
2022-08-11T11:30:22.096Z,23.14
2022-08-11T11:33:04.289Z,22.65
2022-08-11T11:36:18.835Z,22.64
2022-08-11T11:38:46.512Z,24.11
2022-08-11T11:41:26.011Z,23.69
2022-08-11T11:43:57.298Z,23.50
2022-08-11T11:46:31.821Z,21.77
2022-08-11T11:49:15.279Z,20.39
2022-08-11T11:51:50.110Z,20.18
2022-08-11T11:54:26.537Z,18.48
2022-08-11T11:56:55.437Z,20.77
2022-08-11T11:59:44.396Z,20.91
2022-08-11T12:02:15.770Z,21.62
2022-08-11T12:04:47.820Z,21.82
2022-08-11T12:07:34.269Z,21.62
2022-08-11T12:10:01.878Z,21.67
2022-08-11T12:12:49.770Z,21.28
2022-08-11T12:15:19.904Z,21.78
2022-08-11T12:18:07.254Z,21.15
2022-08-11T12:20:34.498Z,21.46
2022-08-11T12:23:20.416Z,21.83
2022-08-11T12:26:27.699Z,21.57
2022-08-11T12:28:53.422Z,20.84
2022-08-11T12:31:22.294Z,21.54
2022-08-11T12:33:50.395Z,20.72
2022-08-11T12:36:19.571Z,20.56
2022-08-11T12:38:51.289Z,21.62
2022-08-11T12:41:40.887Z,21.20
2022-08-11T12:44:30.930Z,21.88
2022-08-11T12:47:02.016Z,20.06
2022-08-11T12:49:53.700Z,21.56
2022-08-11T12:52:29.407Z,20.35
2022-08-11T12:54:59.958Z,20.82
2022-08-11T12:57:57.938Z,20.71
2022-08-11T13:00:46.333Z,20.64
2022-08-11T13:03:33.322Z,20.83
2022-08-11T13:06:03.865Z,21.38
2022-08-11T13:08:38.513Z,20.63
2022-08-11T13:11:25.523Z,22.37
2022-08-11T13:14:15.183Z,21.33
2022-08-11T13:17:04.019Z,20.04
2022-08-11T13:19:32.551Z,20.65
2022-08-11T13:22:02.504Z,20.42
2022-08-11T13:24:34.106Z,20.27
2022-08-11T13:27:03.093Z,20.28
2022-08-11T13:29:30.867Z,20.69
2022-08-11T13:31:59.916Z,19.97
2022-08-11T13:34:31.404Z,20.05
2022-08-11T13:37:02.223Z,19.33
2022-08-11T13:39:32.910Z,19.68
2022-08-11T13:42:03.696Z,18.52
2022-08-11T13:44:36.195Z,18.84
2022-08-11T13:47:06.699Z,18.85
2022-08-11T13:49:44.454Z,18.88
2022-08-11T13:52:17.657Z,17.81
2022-08-11T13:54:48.276Z,18.00
2022-08-11T13:58:08.423Z,18.00
2022-08-11T14:00:13.028Z,18.03
2022-08-11T14:02:54.081Z,17.69
2022-08-11T14:05:33.161Z,16.17
2022-08-11T14:08:04.498Z,16.27
2022-08-11T14:10:34.481Z,16.49
2022-08-11T14:13:27.337Z,20.71
2022-08-11T14:15:57.400Z,20.01
2022-08-11T14:18:29.037Z,20.39
2022-08-11T14:21:16.054Z,20.48
2022-08-11T14:23:48.171Z,19.38
2022-08-11T14:26:23.908Z,20.28
2022-08-11T14:29:04.978Z,20.83
2022-08-11T14:31:35.744Z,21.31
2022-08-11T14:34:06.606Z,21.20
2022-08-11T14:36:41.967Z,21.11
2022-08-11T14:39:14.153Z,21.50
2022-08-11T14:42:11.593Z,21.51
2022-08-11T14:45:22.682Z,21.84
2022-08-11T14:47:57.699Z,21.99
2022-08-11T14:50:28.598Z,21.75
2022-08-11T14:53:05.050Z,22.30
2022-08-11T14:55:56.831Z,22.30
2022-08-11T14:58:28.027Z,22.69
2022-08-11T15:00:58.679Z,22.61
2022-08-11T15:03:28.482Z,22.75
2022-08-11T15:06:02.192Z,22.78
2022-08-11T15:08:51.691Z,22.87
2022-08-11T15:11:47.282Z,22.11
2022-08-11T15:14:35.137Z,22.13
2022-08-11T15:17:09.296Z,22.18
2022-08-11T15:20:00.624Z,21.53
2022-08-11T15:22:46.840Z,21.36
2022-08-11T15:25:15.092Z,21.27
2022-08-11T15:28:04.658Z,22.16
2022-08-11T15:30:52.889Z,21.61
2022-08-11T15:33:39.289Z,20.60
2022-08-11T15:36:28.416Z,21.38
2022-08-11T15:39:04.563Z,21.51
2022-08-11T15:42:19.792Z,22.46
2022-08-11T15:45:14.864Z,23.32
2022-08-11T15:48:02.493Z,22.77
2022-08-11T15:50:39.459Z,22.87
2022-08-11T15:53:30.797Z,23.03
2022-08-11T15:55:59.327Z,22.10
2022-08-11T15:59:10.548Z,23.00
2022-08-11T16:02:02.122Z,23.71
2022-08-11T16:04:32.033Z,23.54
2022-08-11T16:07:11.772Z,23.26
2022-08-11T16:10:00.570Z,22.99
2022-08-11T16:12:37.733Z,23.55
2022-08-11T16:15:27.788Z,23.34
2022-08-11T16:18:06.874Z,22.79
2022-08-11T16:20:35.192Z,23.16
2022-08-11T16:23:08.492Z,23.71
2022-08-11T16:27:06.984Z,23.86
2022-08-11T16:28:25.406Z,23.91
2022-08-11T16:30:55.146Z,23.70
2022-08-11T16:33:51.165Z,24.03
2022-08-11T16:36:33.110Z,24.34
2022-08-11T16:39:02.706Z,23.76
2022-08-11T16:41:53.108Z,23.79
2022-08-11T16:44:39.936Z,23.51
2022-08-11T16:47:16.329Z,23.89
2022-08-11T16:49:52.777Z,23.58
2022-08-11T16:52:24.478Z,23.62
2022-08-11T16:54:52.861Z,23.79
2022-08-11T16:57:44.998Z,23.76
2022-08-11T17:00:16.871Z,24.88
2022-08-11T17:03:11.097Z,25.45
2022-08-11T17:06:11.770Z,25.41
2022-08-11T17:09:09.517Z,25.06
2022-08-11T17:12:11.360Z,25.11
2022-08-11T17:14:48.460Z,25.36
2022-08-11T17:17:37.342Z,25.33
2022-08-11T17:20:42.469Z,25.54
2022-08-11T17:23:18.578Z,25.31
2022-08-11T17:26:03.894Z,24.89
2022-08-11T17:28:34.476Z,25.40
2022-08-11T17:31:22.843Z,25.51
2022-08-11T17:34:11.003Z,25.13
2022-08-11T17:36:44.591Z,25.55
2022-08-11T17:39:14.908Z,25.44
2022-08-11T17:42:02.784Z,26.00
2022-08-11T17:44:50.668Z,26.06
2022-08-11T17:47:38.952Z,25.76
2022-08-11T17:50:16.383Z,26.47
2022-08-11T17:53:05.389Z,25.92
2022-08-11T17:55:54.386Z,25.93
2022-08-11T17:58:41.811Z,26.01
2022-08-11T18:01:11.113Z,26.28
2022-08-11T18:03:41.557Z,26.19
2022-08-11T18:06:35.233Z,25.77
2022-08-11T18:09:38.840Z,25.59
2022-08-11T18:12:27.748Z,26.03
2022-08-11T18:15:14.709Z,25.92
2022-08-11T18:18:00.474Z,26.21
2022-08-11T18:20:47.176Z,27.05
2022-08-11T18:23:41.978Z,27.99
2022-08-11T18:26:41.941Z,28.18
2022-08-11T18:29:29.054Z,28.86
2022-08-11T18:32:22.027Z,28.98
2022-08-11T18:35:11.276Z,31.08
2022-08-11T18:38:07.782Z,32.26
2022-08-11T18:40:55.641Z,32.55
2022-08-11T18:43:44.475Z,33.30
2022-08-11T18:46:35.295Z,33.23
2022-08-11T18:50:01.427Z,34.08
2022-08-11T18:52:40.768Z,34.71
2022-08-11T18:55:32.861Z,34.50
2022-08-11T18:58:22.701Z,35.80
2022-08-11T19:01:12.954Z,35.27
2022-08-11T19:04:10.190Z,35.32
2022-08-11T19:06:58.948Z,35.42
2022-08-11T19:09:46.900Z,35.08
2022-08-11T19:12:34.521Z,35.99
2022-08-11T19:15:21.797Z,36.54
2022-08-11T19:18:08.448Z,36.91
2022-08-11T19:20:56.301Z,36.72
2022-08-11T19:24:01.479Z,37.61
2022-08-11T19:26:48.086Z,37.43
2022-08-11T19:30:07.058Z,37.56
2022-08-11T19:32:46.466Z,37.72
2022-08-11T19:35:34.414Z,38.54
2022-08-11T19:38:21.190Z,38.13
2022-08-11T19:41:10.763Z,38.36
2022-08-11T19:43:58.293Z,39.25
2022-08-11T19:46:44.773Z,38.93
2022-08-11T19:49:32.267Z,39.75
2022-08-11T19:52:18.237Z,40.09
2022-08-11T19:55:05.135Z,40.59
2022-08-11T19:57:54.167Z,40.77
2022-08-11T20:00:40.705Z,41.00
2022-08-11T20:03:30.134Z,41.40
2022-08-11T20:06:26.449Z,42.35
2022-08-11T20:09:19.025Z,41.74
2022-08-11T20:12:13.683Z,42.09
2022-08-11T20:15:02.300Z,42.57
2022-08-11T20:17:54.462Z,42.33
2022-08-11T20:20:44.192Z,42.39
2022-08-11T20:23:34.976Z,41.94
2022-08-11T20:26:31.719Z,42.41
2022-08-11T20:29:20.316Z,42.20
2022-08-11T20:32:09.767Z,42.74
2022-08-11T20:34:58.391Z,42.25
2022-08-11T20:37:48.999Z,42.53
2022-08-11T20:40:43.821Z,42.96
2022-08-11T20:44:05.927Z,42.68
2022-08-11T20:46:47.765Z,42.65
2022-08-11T20:49:44.279Z,42.47
2022-08-11T20:52:40.152Z,43.32
2022-08-11T20:59:02.710Z,43.01
2022-08-11T21:01:42.938Z,43.26
2022-08-11T21:04:29.118Z,44.06
2022-08-11T21:07:28.552Z,43.80
2022-08-11T21:10:23.451Z,43.48
2022-08-11T21:13:24.241Z,43.21
2022-08-11T21:16:26.323Z,43.92
2022-08-11T21:20:00.605Z,43.48
2022-08-11T21:22:59.484Z,44.99
2022-08-11T21:25:59.771Z,44.41
2022-08-11T21:28:47.782Z,44.63
2022-08-11T21:31:34.749Z,44.86
2022-08-11T21:34:21.591Z,44.41
2022-08-11T21:37:09.776Z,44.67
2022-08-11T21:39:56.281Z,45.08
2022-08-11T21:42:44.565Z,45.06
2022-08-11T21:45:34.963Z,45.44
2022-08-11T21:48:22.374Z,45.24
2022-08-11T21:51:08.298Z,46.12
2022-08-11T21:53:54.519Z,47.22
2022-08-11T21:56:41.763Z,47.12
2022-08-11T21:59:29.770Z,46.53
2022-08-11T22:02:16.966Z,46.43
2022-08-11T22:05:03.368Z,47.27
2022-08-11T22:07:50.243Z,47.57
2022-08-11T22:10:42.176Z,47.81
2022-08-11T22:13:31.572Z,48.61
2022-08-11T22:16:19.000Z,48.29
2022-08-11T22:19:11.083Z,48.58
2022-08-11T22:22:04.113Z,48.78
2022-08-11T22:24:54.060Z,49.33
2022-08-11T22:27:40.864Z,49.09
2022-08-11T22:30:29.731Z,49.50
2022-08-11T22:33:18.200Z,48.76
2022-08-11T22:36:13.799Z,49.20
2022-08-11T22:39:01.255Z,49.68
2022-08-11T22:41:47.006Z,49.02
2022-08-11T22:44:32.877Z,50.26
2022-08-11T22:47:21.837Z,49.41
2022-08-11T22:50:15.860Z,50.26
2022-08-11T22:53:03.785Z,49.80
2022-08-11T22:55:50.406Z,50.03
2022-08-11T22:58:40.105Z,49.72
2022-08-11T23:01:26.366Z,50.02
2022-08-11T23:04:12.581Z,50.01
2022-08-11T23:07:01.144Z,49.91
2022-08-11T23:09:47.365Z,49.85
2022-08-11T23:12:33.348Z,50.19
2022-08-11T23:15:20.143Z,50.37
2022-08-11T23:18:06.094Z,50.78
2022-08-11T23:20:53.082Z,51.31
2022-08-11T23:23:42.105Z,51.81
2022-08-11T23:26:31.555Z,51.66
2022-08-11T23:29:18.432Z,50.97
2022-08-11T23:32:05.893Z,51.32
2022-08-11T23:35:37.372Z,51.54
2022-08-11T23:38:04.132Z,50.96
2022-08-11T23:40:49.998Z,50.84
2022-08-11T23:43:41.000Z,51.87
2022-08-11T23:46:27.326Z,51.37
2022-08-11T23:49:21.834Z,51.35
2022-08-11T23:52:10.795Z,51.32
2022-08-11T23:54:57.190Z,51.59
2022-08-11T23:57:48.933Z,52.37
